Jay Michael — WDD2051 — position and weather

sailwx.info

Track history (hours):
 
Tides and Currents Weather Stations Pressure Air Temp Water Temp Dewpoint Dewpoint Depression Visibility Wind Speed Wind Dir Waves Ship Positions

Jay Michael

Owner: Sterling Equipment Inc., Quincy, MA. More information available from US FCC via Universal Licensing System and Coast Guard Vessel Documentation Center.

Last reported at 2016-Dec-02 14:33 UTC. Time now 2016-Dec-04 03:56 UTC.
Position N 42°54' W 070°34'.

Length 21 m; draft 2.5 m.

Type: Tug. MMSI: 367110280.

Date/timePositionNaut miles runAvg speedWind from/ knotsBaromVisibWave heightAir tempDewpointWater temp
2016-Dec-02 14:33N 42°54' W 070°34'6 5.9
2016-Dec-02 13:33N 42°48' W 070°33'6 5.9
2016-Dec-02 12:33N 42°42' W 070°32'6 5.6
2016-Dec-02 11:33N 42°37' W 070°33'6 6.3
2016-Dec-02 10:33N 42°32' W 070°38'7 6.5
2016-Dec-02 09:33N 42°27' W 070°44'6 6.5
2016-Dec-02 08:33N 42°22' W 070°49'6 5.8
2016-Dec-02 07:33N 42°18' W 070°55'4 3.7
2016-Dec-02 06:33N 42°15' W 070°58'1 0.6
2016-Dec-02 05:32N 42°14' W 070°58'0 0.0
2016-Dec-02 04:33N 42°14' W 070°58'0 0.0
2016-Dec-02 03:33N 42°14' W 070°58'8 7.5
2016-Dec-02 02:33N 42°22' W 070°56'9 8.5
2016-Dec-02 01:33N 42°27' W 070°47'8 8.4
2016-Dec-02 00:33N 42°33' W 070°38'8 8.3
2016-Dec-01 23:33N 42°40' W 070°32'9 8.5
2016-Dec-01 22:33N 42°48' W 070°30'  
2016-Nov-28 05:14N 42°48' W 070°18'2 3.5
2016-Nov-28 04:33N 42°46' W 070°20'4 3.6
2016-Nov-28 03:33N 42°43' W 070°23'4 3.6
2016-Nov-28 02:33N 42°41' W 070°26'3 3.4
2016-Nov-28 01:33N 42°38' W 070°29'4 3.6
2016-Nov-28 00:33N 42°36' W 070°33'4 4.2
2016-Nov-27 23:33N 42°33' W 070°37'4 4.3
2016-Nov-27 22:34N 42°30' W 070°41'4 4.2
2016-Nov-27 21:33N 42°28' W 070°46'3 3.3
2016-Nov-27 20:34N 42°25' W 070°48'4 3.6
2016-Nov-27 19:34N 42°21' W 070°50'4 3.9
2016-Nov-27 18:34N 42°19' W 070°54'3 3.0
2016-Nov-27 17:34N 42°16' W 070°56'3 2.4
2016-Nov-27 16:29N 42°15' W 070°58'0 0.0
2016-Nov-27 15:33N 42°15' W 070°58'0 0.0
2016-Nov-27 14:33N 42°15' W 070°58'0 0.0
2016-Nov-27 13:33N 42°15' W 070°58'0 0.0
2016-Nov-27 12:32N 42°15' W 070°58'0 0.0
2016-Nov-27 11:34N 42°15' W 070°58'0 0.0
2016-Nov-27 10:33N 42°15' W 070°58'0 0.0
2016-Nov-27 09:33N 42°15' W 070°58'0 0.0
2016-Nov-27 05:25N 42°15' W 070°58'0 0.0
2016-Nov-27 04:33N 42°15' W 070°58'0 0.0
2016-Nov-27 03:34N 42°15' W 070°58'0 0.0
2016-Nov-27 02:31N 42°15' W 070°58'0 0.0
2016-Nov-27 01:34N 42°15' W 070°58'0 0.0
2016-Nov-27 00:32N 42°15' W 070°58'0 0.0
2016-Nov-26 23:33N 42°15' W 070°58'0 0.0
2016-Nov-26 22:33N 42°15' W 070°58'0 0.0
2016-Nov-26 19:04N 42°15' W 070°58'0 0.0
2016-Nov-26 18:33N 42°15' W 070°58'0 0.0
2016-Nov-26 17:33N 42°15' W 070°58'0 0.0
2016-Nov-26 16:33N 42°15' W 070°58'0 0.0
2016-Nov-26 15:31N 42°15' W 070°58'0 0.0
2016-Nov-26 14:33N 42°15' W 070°58'0 0.0
2016-Nov-26 13:33N 42°15' W 070°58'0 0.0
2016-Nov-26 12:33N 42°15' W 070°58'0 0.0
2016-Nov-26 11:33N 42°15' W 070°58'0 0.0
2016-Nov-26 10:33N 42°15' W 070°58'0 0.0
2016-Nov-26 09:33N 42°15' W 070°58'0 0.0
2016-Nov-26 08:33N 42°15' W 070°58'0 0.0
2016-Nov-26 07:32N 42°15' W 070°58'0 0.0
2016-Nov-26 06:25N 42°15' W 070°58'0 0.0
2016-Nov-26 05:28N 42°15' W 070°58'0 0.0
2016-Nov-26 04:32N 42°15' W 070°58'0 0.0
2016-Nov-26 03:28N 42°15' W 070°58'0 0.0
2016-Nov-26 02:33N 42°15' W 070°58'0 0.0
2016-Nov-26 01:33N 42°15' W 070°58'0 0.0
2016-Nov-26 00:31N 42°15' W 070°58'0 0.0
2016-Nov-25 23:32N 42°15' W 070°58'0 0.1
2016-Nov-25 22:33N 42°15' W 070°58'0 0.3
2016-Nov-25 21:31N 42°14' W 070°58'0 0.0
2016-Nov-25 20:33N 42°14' W 070°58'3 3.5
2016-Nov-25 19:33N 42°17' W 070°56'2 2.3
2016-Nov-25 18:33N 42°19' W 070°54'4 3.8
2016-Nov-25 17:33N 42°18' W 070°49'161 3.7
2016-Nov-23 22:20N 40°48' W 073°47'3 4.2
2016-Nov-23 21:32N 40°48' W 073°52'5 5.0
2016-Nov-23 20:33N 40°45' W 073°57'5 4.8
2016-Nov-23 19:33N 40°41' W 074°01'4 3.8
2016-Nov-23 18:33N 40°39' W 074°05'3 2.7
2016-Nov-23 17:33N 40°39' W 074°08'3 2.6
2016-Nov-23 16:33N 40°38' W 074°12'0 0.0
2016-Nov-23 15:31N 40°38' W 074°12'0 0.0
2016-Nov-23 14:33N 40°38' W 074°12'0 0.0
2016-Nov-23 13:33N 40°38' W 074°12'0 0.0
2016-Nov-23 12:29N 40°38' W 074°12'2 2.1
2016-Nov-23 11:33N 40°38' W 074°09'0 0.0
2016-Nov-23 10:33N 40°38' W 074°09'0 0.0
2016-Nov-23 09:33N 40°38' W 074°09'0 0.0
2016-Nov-23 08:33N 40°38' W 074°09'0 0.0
2016-Nov-23 07:33N 40°38' W 074°09'0 0.0
2016-Nov-23 06:33N 40°38' W 074°09'1 0.4
2016-Nov-23 03:33N 40°39' W 074°11'1 0.9
2016-Nov-23 02:33N 40°38' W 074°12'0 0.1
2016-Nov-23 00:33N 40°38' W 074°12'2 1.9
2016-Nov-22 23:33N 40°38' W 074°09'  
Track history (hours):
 
Tides and Currents Weather Stations Pressure Air Temp Water Temp Dewpoint Dewpoint Depression Visibility Wind Speed Wind Dir Waves Ship Positions

Jay Michael

Owner: Sterling Equipment Inc., Quincy, MA. More information available from US FCC via Universal Licensing System and Coast Guard Vessel Documentation Center.

Last reported at 2016-Dec-02 14:33 UTC. Time now 2016-Dec-04 03:56 UTC.
Position N 42°54' W 070°34'.

Length 21 m; draft 2.5 m.

Type: Tug. MMSI: 367110280.

Date/timePositionNaut miles runAvg speedWind from/ knotsBaromVisibWave heightAir tempDewpointWater temp
2016-Dec-02 14:33N 42°54' W 070°34'6 5.9
2016-Dec-02 13:33N 42°48' W 070°33'6 5.9
2016-Dec-02 12:33N 42°42' W 070°32'6 5.6
2016-Dec-02 11:33N 42°37' W 070°33'6 6.3
2016-Dec-02 10:33N 42°32' W 070°38'7 6.5
2016-Dec-02 09:33N 42°27' W 070°44'6 6.5
2016-Dec-02 08:33N 42°22' W 070°49'6 5.8
2016-Dec-02 07:33N 42°18' W 070°55'4 3.7
2016-Dec-02 06:33N 42°15' W 070°58'1 0.6
2016-Dec-02 05:32N 42°14' W 070°58'0 0.0
2016-Dec-02 04:33N 42°14' W 070°58'0 0.0
2016-Dec-02 03:33N 42°14' W 070°58'8 7.5
2016-Dec-02 02:33N 42°22' W 070°56'9 8.5
2016-Dec-02 01:33N 42°27' W 070°47'8 8.4
2016-Dec-02 00:33N 42°33' W 070°38'8 8.3
2016-Dec-01 23:33N 42°40' W 070°32'9 8.5
2016-Dec-01 22:33N 42°48' W 070°30'  
2016-Nov-28 05:14N 42°48' W 070°18'2 3.5
2016-Nov-28 04:33N 42°46' W 070°20'4 3.6
2016-Nov-28 03:33N 42°43' W 070°23'4 3.6
2016-Nov-28 02:33N 42°41' W 070°26'3 3.4
2016-Nov-28 01:33N 42°38' W 070°29'4 3.6
2016-Nov-28 00:33N 42°36' W 070°33'4 4.2
2016-Nov-27 23:33N 42°33' W 070°37'4 4.3
2016-Nov-27 22:34N 42°30' W 070°41'4 4.2
2016-Nov-27 21:33N 42°28' W 070°46'3 3.3
2016-Nov-27 20:34N 42°25' W 070°48'4 3.6
2016-Nov-27 19:34N 42°21' W 070°50'4 3.9
2016-Nov-27 18:34N 42°19' W 070°54'3 3.0
2016-Nov-27 17:34N 42°16' W 070°56'3 2.4
2016-Nov-27 16:29N 42°15' W 070°58'0 0.0
2016-Nov-27 15:33N 42°15' W 070°58'0 0.0
2016-Nov-27 14:33N 42°15' W 070°58'0 0.0
2016-Nov-27 13:33N 42°15' W 070°58'0 0.0
2016-Nov-27 12:32N 42°15' W 070°58'0 0.0
2016-Nov-27 11:34N 42°15' W 070°58'0 0.0
2016-Nov-27 10:33N 42°15' W 070°58'0 0.0
2016-Nov-27 09:33N 42°15' W 070°58'0 0.0
2016-Nov-27 05:25N 42°15' W 070°58'0 0.0
2016-Nov-27 04:33N 42°15' W 070°58'0 0.0
2016-Nov-27 03:34N 42°15' W 070°58'0 0.0
2016-Nov-27 02:31N 42°15' W 070°58'0 0.0
2016-Nov-27 01:34N 42°15' W 070°58'0 0.0
2016-Nov-27 00:32N 42°15' W 070°58'0 0.0
2016-Nov-26 23:33N 42°15' W 070°58'0 0.0
2016-Nov-26 22:33N 42°15' W 070°58'0 0.0
2016-Nov-26 19:04N 42°15' W 070°58'0 0.0
2016-Nov-26 18:33N 42°15' W 070°58'0 0.0
2016-Nov-26 17:33N 42°15' W 070°58'0 0.0
2016-Nov-26 16:33N 42°15' W 070°58'0 0.0
2016-Nov-26 15:31N 42°15' W 070°58'0 0.0
2016-Nov-26 14:33N 42°15' W 070°58'0 0.0
2016-Nov-26 13:33N 42°15' W 070°58'0 0.0
2016-Nov-26 12:33N 42°15' W 070°58'0 0.0
2016-Nov-26 11:33N 42°15' W 070°58'0 0.0
2016-Nov-26 10:33N 42°15' W 070°58'0 0.0
2016-Nov-26 09:33N 42°15' W 070°58'0 0.0
2016-Nov-26 08:33N 42°15' W 070°58'0 0.0
2016-Nov-26 07:32N 42°15' W 070°58'0 0.0
2016-Nov-26 06:25N 42°15' W 070°58'0 0.0
2016-Nov-26 05:28N 42°15' W 070°58'0 0.0
2016-Nov-26 04:32N 42°15' W 070°58'0 0.0
2016-Nov-26 03:28N 42°15' W 070°58'0 0.0
2016-Nov-26 02:33N 42°15' W 070°58'0 0.0
2016-Nov-26 01:33N 42°15' W 070°58'0 0.0
2016-Nov-26 00:31N 42°15' W 070°58'0 0.0
2016-Nov-25 23:32N 42°15' W 070°58'0 0.1
2016-Nov-25 22:33N 42°15' W 070°58'0 0.3
2016-Nov-25 21:31N 42°14' W 070°58'0 0.0
2016-Nov-25 20:33N 42°14' W 070°58'3 3.5
2016-Nov-25 19:33N 42°17' W 070°56'2 2.3
2016-Nov-25 18:33N 42°19' W 070°54'4 3.8
2016-Nov-25 17:33N 42°18' W 070°49'161 3.7
2016-Nov-23 22:20N 40°48' W 073°47'3 4.2
2016-Nov-23 21:32N 40°48' W 073°52'5 5.0
2016-Nov-23 20:33N 40°45' W 073°57'5 4.8
2016-Nov-23 19:33N 40°41' W 074°01'4 3.8
2016-Nov-23 18:33N 40°39' W 074°05'3 2.7
2016-Nov-23 17:33N 40°39' W 074°08'3 2.6
2016-Nov-23 16:33N 40°38' W 074°12'0 0.0
2016-Nov-23 15:31N 40°38' W 074°12'0 0.0
2016-Nov-23 14:33N 40°38' W 074°12'0 0.0
2016-Nov-23 13:33N 40°38' W 074°12'0 0.0
2016-Nov-23 12:29N 40°38' W 074°12'2 2.1
2016-Nov-23 11:33N 40°38' W 074°09'0 0.0
2016-Nov-23 10:33N 40°38' W 074°09'0 0.0
2016-Nov-23 09:33N 40°38' W 074°09'0 0.0
2016-Nov-23 08:33N 40°38' W 074°09'0 0.0
2016-Nov-23 07:33N 40°38' W 074°09'0 0.0
2016-Nov-23 06:33N 40°38' W 074°09'1 0.4
2016-Nov-23 03:33N 40°39' W 074°11'1 0.9
2016-Nov-23 02:33N 40°38' W 074°12'0 0.1
2016-Nov-23 00:33N 40°38' W 074°12'2 1.9
2016-Nov-22 23:33N 40°38' W 074°09'  

Dump ship's entire track history